• Join FlightAware (Why Join?)
  • Login
  • US Flag 
05:06PM EDT


 

Airport Tracker/Info


-or-


 

Live Flight TrackerFlight Track Log ✈ ELO3908 ✈ 03-Oct-2013 ✈ EPKK / KRK - EPWA / WAW

Flight Track Log - Related Links

Times and Time Zones

All times are in EDT time to prevent confusion due to time zone crossing. See the ELO3908 flight status page for this flight to view local times or setup timezone preferences in your user account.

Time Position Orientation Groundspeed Altitude Reporting Facility
EDT Latitude Longitude Course Direction KTS MPH feet Rate Location/Type
10:34AM 50.2939 19.9021 19° North  Level Estimated
10:35AM 50.3659 19.9414 19° North  Level Estimated
10:36AM 50.4380 19.9808 19° North  Level Estimated
10:37AM 50.5099 20.0204 19° North  Level Estimated
10:38AM 50.5819 20.0601 19° North  Level Estimated
10:39AM 50.6539 20.0999 19° North  Level Estimated
10:40AM 50.7259 20.1398 19° North  Level Estimated
10:41AM 50.7978 20.1798 19° North  Level Estimated
10:42AM 50.8698 20.2200 19° North  Level Estimated
10:43AM 50.9417 20.2603 19° North  Level Estimated
10:44AM 51.0136 20.3007 19° North  Level Estimated
10:45AM 51.0855 20.3413 20° North  Level Estimated
10:46AM 51.1574 20.3819 20° North  Level Estimated
10:47AM 51.2292 20.4227 20° North  Level Estimated
10:48AM 51.3011 20.4637 20° North  Level Estimated
10:49AM 51.3729 20.5047 20° North  Level Estimated
10:50AM 51.4447 20.5459 20° North  Level Estimated
10:51AM 51.5165 20.5872 20° North  Level Estimated
10:52AM 51.5883 20.6286 20° North  Level Estimated
10:53AM 51.6601 20.6702 20° North  Level Estimated
10:54AM 51.7319 20.7119 20° North  Level Estimated
10:55AM 51.8036 20.7538 20° North  Level Estimated
10:56AM 51.8754 20.7957 20° North  Level Estimated
10:57AM 51.9471 20.8378 20° North  Level Estimated
10:58AM 52.0188 20.8801 20° North  Level Estimated
10:59AM 52.0905 20.9225 20° North  Level Estimated
11:00AM 52.1621 20.9650 20° North  Level Estimated
11:01AM 52.1657 20.9671 20° North  Level Estimated
11:02AM 52.1657 20.9671 90° East  Level Estimated
11:03AM 52.1657 20.9671 90° East  Level Estimated
11:04AM 52.1657 20.9671 90° East  Level Estimated
11:05AM 52.1657 20.9671 90° East  Level Estimated
11:06AM 52.1657 20.9671 90° East  Level Estimated
11:07AM 52.1657 20.9671 90° East  Level Estimated
11:08AM 52.1657 20.9671 90° East  Level Estimated
11:09AM 52.1657 20.9671 90° East  Level Estimated
11:10AM 52.1657 20.9671 90° East  Level Estimated
11:11AM 52.1657 20.9671 90° East  Level Estimated